sensor_id;sensor_type;location;lat;lon;timestamp;P1;durP1;ratioP1;P2;durP2;ratioP2
71836;SDS011;59686;51.716;7.016;2023-06-22T00:01:58;2.70;;;2.50;;
71836;SDS011;59686;51.716;7.016;2023-06-22T00:04:24;3.25;;;2.58;;
71836;SDS011;59686;51.716;7.016;2023-06-22T00:06:50;2.55;;;2.35;;
71836;SDS011;59686;51.716;7.016;2023-06-22T00:09:16;2.78;;;2.50;;
71836;SDS011;59686;51.716;7.016;2023-06-22T00:11:44;2.50;;;2.30;;
71836;SDS011;59686;51.716;7.016;2023-06-22T00:14:09;2.90;;;2.65;;
71836;SDS011;59686;51.716;7.016;2023-06-22T00:16:35;3.10;;;2.80;;
71836;SDS011;59686;51.716;7.016;2023-06-22T00:19:01;3.08;;;2.58;;
71836;SDS011;59686;51.716;7.016;2023-06-22T00:21:28;2.70;;;2.50;;
71836;SDS011;59686;51.716;7.016;2023-06-22T00:23:54;2.70;;;2.50;;
71836;SDS011;59686;51.716;7.016;2023-06-22T00:26:22;3.65;;;2.80;;
71836;SDS011;59686;51.716;7.016;2023-06-22T00:28:48;3.90;;;2.63;;
71836;SDS011;59686;51.716;7.016;2023-06-22T00:31:14;2.78;;;2.50;;
71836;SDS011;59686;51.716;7.016;2023-06-22T00:33:40;2.78;;;2.58;;
71836;SDS011;59686;51.716;7.016;2023-06-22T00:36:05;3.10;;;2.60;;
71836;SDS011;59686;51.716;7.016;2023-06-22T00:38:33;2.92;;;2.70;;
71836;SDS011;59686;51.716;7.016;2023-06-22T00:40:59;3.10;;;2.80;;
71836;SDS011;59686;51.716;7.016;2023-06-22T00:43:24;2.90;;;2.60;;
71836;SDS011;59686;51.716;7.016;2023-06-22T00:45:50;4.07;;;2.47;;
71836;SDS011;59686;51.716;7.016;2023-06-22T00:48:27;3.20;;;2.90;;
71836;SDS011;59686;51.716;7.016;2023-06-22T00:50:53;2.50;;;2.30;;
71836;SDS011;59686;51.716;7.016;2023-06-22T00:53:20;2.63;;;2.42;;
71836;SDS011;59686;51.716;7.016;2023-06-22T00:55:46;2.83;;;2.60;;
71836;SDS011;59686;51.716;7.016;2023-06-22T00:58:12;3.40;;;2.50;;
71836;SDS011;59686;51.716;7.016;2023-06-22T01:00:39;3.20;;;2.90;;
71836;SDS011;59686;51.716;7.016;2023-06-22T01:03:06;3.13;;;2.60;;
71836;SDS011;59686;51.716;7.016;2023-06-22T01:05:35;4.00;;;2.85;;
71836;SDS011;59686;51.716;7.016;2023-06-22T01:11:07;4.10;;;2.80;;
71836;SDS011;59686;51.716;7.016;2023-06-22T01:13:49;2.88;;;2.67;;
71836;SDS011;59686;51.716;7.016;2023-06-22T01:18:55;3.17;;;2.75;;
71836;SDS011;59686;51.716;7.016;2023-06-22T01:21:23;2.97;;;2.70;;
71836;SDS011;59686;51.716;7.016;2023-06-22T01:24:15;3.03;;;2.40;;
71836;SDS011;59686;51.716;7.016;2023-06-22T01:29:48;2.83;;;2.58;;
71836;SDS011;59686;51.716;7.016;2023-06-22T01:32:27;2.90;;;2.70;;
71836;SDS011;59686;51.716;7.016;2023-06-22T01:35:01;3.00;;;2.70;;
71836;SDS011;59686;51.716;7.016;2023-06-22T01:37:30;3.10;;;2.80;;
71836;SDS011;59686;51.716;7.016;2023-06-22T01:39:57;3.33;;;2.80;;
71836;SDS011;59686;51.716;7.016;2023-06-22T01:42:24;2.83;;;2.63;;
71836;SDS011;59686;51.716;7.016;2023-06-22T01:44:54;3.92;;;3.00;;
71836;SDS011;59686;51.716;7.016;2023-06-22T01:47:29;3.15;;;2.85;;
71836;SDS011;59686;51.716;7.016;2023-06-22T01:49:56;3.38;;;3.05;;
71836;SDS011;59686;51.716;7.016;2023-06-22T01:52:21;3.38;;;3.05;;
71836;SDS011;59686;51.716;7.016;2023-06-22T01:54:47;3.17;;;2.88;;
71836;SDS011;59686;51.716;7.016;2023-06-22T01:57:13;3.58;;;2.72;;
71836;SDS011;59686;51.716;7.016;2023-06-22T01:59:43;3.25;;;2.95;;
71836;SDS011;59686;51.716;7.016;2023-06-22T02:02:25;3.45;;;2.97;;
71836;SDS011;59686;51.716;7.016;2023-06-22T02:05:02;4.10;;;3.10;;
71836;SDS011;59686;51.716;7.016;2023-06-22T02:07:39;3.15;;;2.85;;
71836;SDS011;59686;51.716;7.016;2023-06-22T02:10:09;3.30;;;3.00;;
71836;SDS011;59686;51.716;7.016;2023-06-22T02:12:39;3.20;;;2.90;;
71836;SDS011;59686;51.716;7.016;2023-06-22T02:15:07;3.65;;;3.15;;
71836;SDS011;59686;51.716;7.016;2023-06-22T02:17:34;3.30;;;3.00;;
71836;SDS011;59686;51.716;7.016;2023-06-22T02:20:01;3.95;;;2.88;;
71836;SDS011;59686;51.716;7.016;2023-06-22T02:22:31;3.45;;;3.15;;
71836;SDS011;59686;51.716;7.016;2023-06-22T02:24:56;3.65;;;3.22;;
71836;SDS011;59686;51.716;7.016;2023-06-22T02:27:22;3.47;;;2.88;;
71836;SDS011;59686;51.716;7.016;2023-06-22T02:29:47;3.33;;;3.00;;
71836;SDS011;59686;51.716;7.016;2023-06-22T02:32:13;3.30;;;3.00;;
71836;SDS011;59686;51.716;7.016;2023-06-22T02:34:40;4.05;;;3.20;;
71836;SDS011;59686;51.716;7.016;2023-06-22T02:37:05;3.80;;;3.25;;
71836;SDS011;59686;51.716;7.016;2023-06-22T02:39:31;3.70;;;3.30;;
71836;SDS011;59686;51.716;7.016;2023-06-22T02:41:57;3.30;;;3.00;;
71836;SDS011;59686;51.716;7.016;2023-06-22T02:44:22;3.45;;;3.15;;
71836;SDS011;59686;51.716;7.016;2023-06-22T02:46:48;3.40;;;3.10;;
71836;SDS011;59686;51.716;7.016;2023-06-22T02:49:14;4.05;;;3.28;;
71836;SDS011;59686;51.716;7.016;2023-06-22T02:51:42;3.78;;;3.47;;
71836;SDS011;59686;51.716;7.016;2023-06-22T02:54:10;4.40;;;3.30;;
71836;SDS011;59686;51.716;7.016;2023-06-22T02:56:36;5.13;;;3.40;;
71836;SDS011;59686;51.716;7.016;2023-06-22T02:59:02;3.55;;;2.95;;
71836;SDS011;59686;51.716;7.016;2023-06-22T03:01:28;4.22;;;3.17;;
71836;SDS011;59686;51.716;7.016;2023-06-22T03:03:55;3.33;;;2.88;;
71836;SDS011;59686;51.716;7.016;2023-06-22T03:06:21;3.47;;;3.17;;
71836;SDS011;59686;51.716;7.016;2023-06-22T03:08:51;4.00;;;3.40;;
71836;SDS011;59686;51.716;7.016;2023-06-22T03:11:17;3.67;;;3.28;;
71836;SDS011;59686;51.716;7.016;2023-06-22T03:13:43;3.60;;;3.30;;
71836;SDS011;59686;51.716;7.016;2023-06-22T03:16:10;3.42;;;3.13;;
71836;SDS011;59686;51.716;7.016;2023-06-22T03:18:36;3.85;;;3.20;;
71836;SDS011;59686;51.716;7.016;2023-06-22T03:21:02;3.70;;;3.40;;
71836;SDS011;59686;51.716;7.016;2023-06-22T03:23:27;3.80;;;3.50;;
71836;SDS011;59686;51.716;7.016;2023-06-22T03:25:53;3.80;;;3.50;;
71836;SDS011;59686;51.716;7.016;2023-06-22T03:28:21;3.40;;;3.10;;
71836;SDS011;59686;51.716;7.016;2023-06-22T03:30:46;3.80;;;3.40;;
71836;SDS011;59686;51.716;7.016;2023-06-22T03:33:12;3.33;;;3.03;;
71836;SDS011;59686;51.716;7.016;2023-06-22T03:35:38;3.50;;;3.22;;
71836;SDS011;59686;51.716;7.016;2023-06-22T03:38:04;4.10;;;3.22;;
71836;SDS011;59686;51.716;7.016;2023-06-22T03:40:29;4.15;;;3.50;;
71836;SDS011;59686;51.716;7.016;2023-06-22T03:42:55;3.70;;;3.40;;
71836;SDS011;59686;51.716;7.016;2023-06-22T03:45:21;3.95;;;3.65;;
71836;SDS011;59686;51.716;7.016;2023-06-22T03:47:46;3.47;;;3.17;;
71836;SDS011;59686;51.716;7.016;2023-06-22T03:50:12;4.60;;;3.65;;
71836;SDS011;59686;51.716;7.016;2023-06-22T03:52:39;4.43;;;3.97;;
71836;SDS011;59686;51.716;7.016;2023-06-22T03:55:06;3.90;;;3.60;;
71836;SDS011;59686;51.716;7.016;2023-06-22T03:57:32;3.75;;;3.38;;
71836;SDS011;59686;51.716;7.016;2023-06-22T03:59:58;4.28;;;3.42;;
71836;SDS011;59686;51.716;7.016;2023-06-22T04:02:25;4.10;;;3.45;;
71836;SDS011;59686;51.716;7.016;2023-06-22T04:04:51;4.13;;;3.72;;
71836;SDS011;59686;51.716;7.016;2023-06-22T04:07:16;4.13;;;3.72;;
71836;SDS011;59686;51.716;7.016;2023-06-22T04:09:43;5.63;;;3.35;;
71836;SDS011;59686;51.716;7.016;2023-06-22T04:12:09;4.25;;;3.78;;
71836;SDS011;59686;51.716;7.016;2023-06-22T04:14:35;3.70;;;3.40;;
71836;SDS011;59686;51.716;7.016;2023-06-22T04:17:01;4.55;;;3.47;;
71836;SDS011;59686;51.716;7.016;2023-06-22T04:19:26;4.20;;;3.80;;
71836;SDS011;59686;51.716;7.016;2023-06-22T04:21:52;4.05;;;3.55;;
71836;SDS011;59686;51.716;7.016;2023-06-22T04:24:18;3.85;;;3.42;;
71836;SDS011;59686;51.716;7.016;2023-06-22T04:26:43;4.78;;;3.60;;
71836;SDS011;59686;51.716;7.016;2023-06-22T04:29:10;4.35;;;3.95;;
71836;SDS011;59686;51.716;7.016;2023-06-22T04:31:37;4.57;;;3.40;;
71836;SDS011;59686;51.716;7.016;2023-06-22T04:34:06;4.97;;;3.45;;
71836;SDS011;59686;51.716;7.016;2023-06-22T04:36:36;5.03;;;3.85;;
71836;SDS011;59686;51.716;7.016;2023-06-22T04:39:10;3.97;;;3.60;;
71836;SDS011;59686;51.716;7.016;2023-06-22T04:41:36;3.97;;;3.58;;
71836;SDS011;59686;51.716;7.016;2023-06-22T04:44:12;3.78;;;3.47;;
71836;SDS011;59686;51.716;7.016;2023-06-22T04:46:50;3.70;;;3.40;;
71836;SDS011;59686;51.716;7.016;2023-06-22T04:49:19;4.07;;;3.70;;
71836;SDS011;59686;51.716;7.016;2023-06-22T04:51:47;3.72;;;3.42;;
71836;SDS011;59686;51.716;7.016;2023-06-22T04:54:13;5.07;;;3.70;;
71836;SDS011;59686;51.716;7.016;2023-06-22T04:56:38;4.00;;;3.60;;
71836;SDS011;59686;51.716;7.016;2023-06-22T04:59:05;4.55;;;3.90;;
71836;SDS011;59686;51.716;7.016;2023-06-22T05:01:33;4.75;;;3.85;;
71836;SDS011;59686;51.716;7.016;2023-06-22T05:04:00;4.05;;;3.63;;
71836;SDS011;59686;51.716;7.016;2023-06-22T05:06:27;4.18;;;3.80;;
71836;SDS011;59686;51.716;7.016;2023-06-22T05:08:53;3.97;;;3.65;;
71836;SDS011;59686;51.716;7.016;2023-06-22T05:11:24;4.35;;;3.63;;
71836;SDS011;59686;51.716;7.016;2023-06-22T05:13:50;3.88;;;3.47;;
71836;SDS011;59686;51.716;7.016;2023-06-22T05:16:16;4.72;;;3.75;;
71836;SDS011;59686;51.716;7.016;2023-06-22T05:18:42;3.92;;;3.35;;
71836;SDS011;59686;51.716;7.016;2023-06-22T05:21:08;3.50;;;3.20;;
71836;SDS011;59686;51.716;7.016;2023-06-22T05:23:34;4.32;;;3.92;;
71836;SDS011;59686;51.716;7.016;2023-06-22T05:25:59;3.90;;;3.60;;
71836;SDS011;59686;51.716;7.016;2023-06-22T05:28:25;4.30;;;3.65;;
71836;SDS011;59686;51.716;7.016;2023-06-22T05:30:51;4.05;;;3.65;;
71836;SDS011;59686;51.716;7.016;2023-06-22T05:33:16;5.00;;;3.92;;
71836;SDS011;59686;51.716;7.016;2023-06-22T05:35:42;4.05;;;3.50;;
71836;SDS011;59686;51.716;7.016;2023-06-22T05:38:12;4.18;;;3.78;;
71836;SDS011;59686;51.716;7.016;2023-06-22T05:40:38;4.25;;;3.85;;
71836;SDS011;59686;51.716;7.016;2023-06-22T05:43:03;4.40;;;4.00;;
71836;SDS011;59686;51.716;7.016;2023-06-22T05:45:29;4.20;;;3.78;;
71836;SDS011;59686;51.716;7.016;2023-06-22T05:47:54;4.38;;;3.90;;
71836;SDS011;59686;51.716;7.016;2023-06-22T05:50:20;4.15;;;3.80;;
71836;SDS011;59686;51.716;7.016;2023-06-22T05:52:46;4.15;;;3.75;;
71836;SDS011;59686;51.716;7.016;2023-06-22T05:55:11;4.32;;;3.88;;
71836;SDS011;59686;51.716;7.016;2023-06-22T05:57:37;4.03;;;3.63;;
71836;SDS011;59686;51.716;7.016;2023-06-22T06:00:03;4.07;;;3.75;;
71836;SDS011;59686;51.716;7.016;2023-06-22T06:02:33;4.53;;;4.07;;
71836;SDS011;59686;51.716;7.016;2023-06-22T06:05:15;4.10;;;3.70;;
71836;SDS011;59686;51.716;7.016;2023-06-22T06:07:44;4.10;;;3.70;;
71836;SDS011;59686;51.716;7.016;2023-06-22T06:10:11;5.47;;;3.80;;
71836;SDS011;59686;51.716;7.016;2023-06-22T06:12:37;4.57;;;3.80;;
71836;SDS011;59686;51.716;7.016;2023-06-22T06:15:04;3.85;;;3.55;;
71836;SDS011;59686;51.716;7.016;2023-06-22T06:17:30;4.32;;;3.92;;
71836;SDS011;59686;51.716;7.016;2023-06-22T06:19:56;4.47;;;4.05;;
71836;SDS011;59686;51.716;7.016;2023-06-22T06:22:23;4.43;;;4.00;;
71836;SDS011;59686;51.716;7.016;2023-06-22T06:24:49;4.15;;;3.80;;
71836;SDS011;59686;51.716;7.016;2023-06-22T06:27:15;4.53;;;4.13;;
71836;SDS011;59686;51.716;7.016;2023-06-22T06:29:43;4.00;;;3.70;;
71836;SDS011;59686;51.716;7.016;2023-06-22T06:32:10;4.40;;;4.00;;
71836;SDS011;59686;51.716;7.016;2023-06-22T06:34:36;4.70;;;3.78;;
71836;SDS011;59686;51.716;7.016;2023-06-22T06:37:02;4.32;;;3.92;;
71836;SDS011;59686;51.716;7.016;2023-06-22T06:39:28;4.63;;;4.10;;
71836;SDS011;59686;51.716;7.016;2023-06-22T06:41:53;4.75;;;4.35;;
71836;SDS011;59686;51.716;7.016;2023-06-22T06:44:19;4.47;;;4.07;;
71836;SDS011;59686;51.716;7.016;2023-06-22T06:46:45;4.32;;;3.92;;
71836;SDS011;59686;51.716;7.016;2023-06-22T06:49:10;4.45;;;4.05;;
71836;SDS011;59686;51.716;7.016;2023-06-22T06:51:36;4.50;;;4.10;;
71836;SDS011;59686;51.716;7.016;2023-06-22T06:54:02;4.60;;;4.20;;
71836;SDS011;59686;51.716;7.016;2023-06-22T06:56:28;4.45;;;4.05;;
71836;SDS011;59686;51.716;7.016;2023-06-22T06:58:55;4.60;;;4.20;;
71836;SDS011;59686;51.716;7.016;2023-06-22T07:01:20;4.88;;;4.35;;
71836;SDS011;59686;51.716;7.016;2023-06-22T07:03:46;5.03;;;4.20;;
71836;SDS011;59686;51.716;7.016;2023-06-22T07:06:13;4.90;;;4.50;;
71836;SDS011;59686;51.716;7.016;2023-06-22T07:08:38;4.65;;;4.25;;
71836;SDS011;59686;51.716;7.016;2023-06-22T07:11:05;4.40;;;4.00;;
71836;SDS011;59686;51.716;7.016;2023-06-22T07:13:30;5.05;;;4.65;;
71836;SDS011;59686;51.716;7.016;2023-06-22T07:15:56;4.65;;;4.25;;
71836;SDS011;59686;51.716;7.016;2023-06-22T07:18:22;5.35;;;4.40;;
71836;SDS011;59686;51.716;7.016;2023-06-22T07:20:48;4.30;;;4.00;;
71836;SDS011;59686;51.716;7.016;2023-06-22T07:23:14;4.70;;;4.30;;
71836;SDS011;59686;51.716;7.016;2023-06-22T07:25:39;5.00;;;4.60;;
71836;SDS011;59686;51.716;7.016;2023-06-22T07:28:06;4.60;;;4.20;;
71836;SDS011;59686;51.716;7.016;2023-06-22T07:30:32;4.38;;;3.97;;
71836;SDS011;59686;51.716;7.016;2023-06-22T07:32:59;4.53;;;4.13;;
71836;SDS011;59686;51.716;7.016;2023-06-22T07:35:29;4.65;;;4.25;;
71836;SDS011;59686;51.716;7.016;2023-06-22T07:37:55;4.47;;;3.97;;
71836;SDS011;59686;51.716;7.016;2023-06-22T07:40:21;4.55;;;4.15;;
71836;SDS011;59686;51.716;7.016;2023-06-22T07:42:47;5.97;;;4.55;;
71836;SDS011;59686;51.716;7.016;2023-06-22T07:45:16;6.15;;;4.22;;
71836;SDS011;59686;51.716;7.016;2023-06-22T07:47:44;4.85;;;4.22;;
71836;SDS011;59686;51.716;7.016;2023-06-22T07:50:10;4.93;;;4.53;;
71836;SDS011;59686;51.716;7.016;2023-06-22T07:52:36;4.57;;;4.18;;
71836;SDS011;59686;51.716;7.016;2023-06-22T07:55:02;4.72;;;4.32;;
71836;SDS011;59686;51.716;7.016;2023-06-22T07:57:28;5.00;;;4.60;;
71836;SDS011;59686;51.716;7.016;2023-06-22T08:00:01;4.75;;;4.25;;
71836;SDS011;59686;51.716;7.016;2023-06-22T08:02:35;4.88;;;4.38;;
71836;SDS011;59686;51.716;7.016;2023-06-22T08:05:01;5.05;;;4.65;;
71836;SDS011;59686;51.716;7.016;2023-06-22T08:07:27;4.97;;;4.57;;
71836;SDS011;59686;51.716;7.016;2023-06-22T08:09:52;5.45;;;4.95;;
71836;SDS011;59686;51.716;7.016;2023-06-22T08:12:18;4.90;;;4.50;;
71836;SDS011;59686;51.716;7.016;2023-06-22T08:14:44;4.95;;;4.43;;
71836;SDS011;59686;51.716;7.016;2023-06-22T08:17:11;5.93;;;4.90;;
71836;SDS011;59686;51.716;7.016;2023-06-22T08:19:37;4.90;;;4.50;;
71836;SDS011;59686;51.716;7.016;2023-06-22T08:22:03;5.50;;;5.00;;
71836;SDS011;59686;51.716;7.016;2023-06-22T08:24:28;6.47;;;4.53;;
71836;SDS011;59686;51.716;7.016;2023-06-22T08:26:55;5.05;;;4.65;;
71836;SDS011;59686;51.716;7.016;2023-06-22T08:29:21;4.97;;;4.47;;
71836;SDS011;59686;51.716;7.016;2023-06-22T08:31:50;5.55;;;5.03;;
71836;SDS011;59686;51.716;7.016;2023-06-22T08:34:15;7.40;;;5.57;;
71836;SDS011;59686;51.716;7.016;2023-06-22T08:36:43;5.57;;;5.07;;
71836;SDS011;59686;51.716;7.016;2023-06-22T08:39:15;5.70;;;5.20;;
71836;SDS011;59686;51.716;7.016;2023-06-22T08:41:41;5.50;;;5.10;;
71836;SDS011;59686;51.716;7.016;2023-06-22T08:44:07;5.97;;;5.07;;
71836;SDS011;59686;51.716;7.016;2023-06-22T08:46:33;5.82;;;5.22;;
71836;SDS011;59686;51.716;7.016;2023-06-22T08:48:59;6.25;;;5.30;;
71836;SDS011;59686;51.716;7.016;2023-06-22T08:51:25;6.28;;;5.43;;
71836;SDS011;59686;51.716;7.016;2023-06-22T08:53:50;5.90;;;5.35;;
71836;SDS011;59686;51.716;7.016;2023-06-22T08:56:16;7.70;;;6.07;;
71836;SDS011;59686;51.716;7.016;2023-06-22T08:58:41;8.25;;;5.95;;
71836;SDS011;59686;51.716;7.016;2023-06-22T09:01:11;6.28;;;5.78;;
71836;SDS011;59686;51.716;7.016;2023-06-22T09:03:37;6.78;;;6.07;;
71836;SDS011;59686;51.716;7.016;2023-06-22T09:06:03;6.15;;;5.60;;
71836;SDS011;59686;51.716;7.016;2023-06-22T09:08:28;5.78;;;5.22;;
71836;SDS011;59686;51.716;7.016;2023-06-22T09:10:54;6.75;;;6.13;;
71836;SDS011;59686;51.716;7.016;2023-06-22T09:13:20;6.38;;;5.78;;
71836;SDS011;59686;51.716;7.016;2023-06-22T09:15:47;6.13;;;5.47;;
71836;SDS011;59686;51.716;7.016;2023-06-22T09:18:13;6.20;;;5.63;;
71836;SDS011;59686;51.716;7.016;2023-06-22T09:20:39;8.68;;;6.47;;
71836;SDS011;59686;51.716;7.016;2023-06-22T09:23:05;6.28;;;5.78;;
71836;SDS011;59686;51.716;7.016;2023-06-22T09:25:33;6.75;;;6.15;;
71836;SDS011;59686;51.716;7.016;2023-06-22T09:27:59;6.72;;;6.03;;
71836;SDS011;59686;51.716;7.016;2023-06-22T09:30:25;6.10;;;5.60;;
71836;SDS011;59686;51.716;7.016;2023-06-22T09:32:50;6.70;;;6.00;;
71836;SDS011;59686;51.716;7.016;2023-06-22T09:35:17;6.70;;;6.10;;
71836;SDS011;59686;51.716;7.016;2023-06-22T09:37:43;6.93;;;6.30;;
71836;SDS011;59686;51.716;7.016;2023-06-22T09:40:18;6.72;;;6.13;;
71836;SDS011;59686;51.716;7.016;2023-06-22T09:42:45;6.82;;;6.22;;
71836;SDS011;59686;51.716;7.016;2023-06-22T09:45:10;6.57;;;5.90;;
71836;SDS011;59686;51.716;7.016;2023-06-22T09:47:36;7.40;;;6.70;;
71836;SDS011;59686;51.716;7.016;2023-06-22T09:50:02;11.82;;;8.35;;
71836;SDS011;59686;51.716;7.016;2023-06-22T09:52:28;14.60;;;9.30;;
71836;SDS011;59686;51.716;7.016;2023-06-22T09:54:54;16.73;;;10.23;;
71836;SDS011;59686;51.716;7.016;2023-06-22T09:57:20;16.10;;;9.60;;
71836;SDS011;59686;51.716;7.016;2023-06-22T09:59:45;10.20;;;8.30;;
71836;SDS011;59686;51.716;7.016;2023-06-22T10:02:11;13.90;;;10.35;;
71836;SDS011;59686;51.716;7.016;2023-06-22T10:04:37;11.35;;;10.15;;
71836;SDS011;59686;51.716;7.016;2023-06-22T10:07:02;11.63;;;10.02;;
71836;SDS011;59686;51.716;7.016;2023-06-22T10:09:28;11.32;;;9.75;;
71836;SDS011;59686;51.716;7.016;2023-06-22T10:11:54;12.18;;;9.40;;
71836;SDS011;59686;51.716;7.016;2023-06-22T10:14:19;11.15;;;9.73;;
71836;SDS011;59686;51.716;7.016;2023-06-22T10:16:45;10.88;;;9.43;;
71836;SDS011;59686;51.716;7.016;2023-06-22T10:19:11;9.63;;;8.73;;
71836;SDS011;59686;51.716;7.016;2023-06-22T10:21:36;10.80;;;9.32;;
71836;SDS011;59686;51.716;7.016;2023-06-22T10:24:02;11.93;;;8.65;;
71836;SDS011;59686;51.716;7.016;2023-06-22T10:26:34;10.23;;;8.60;;
71836;SDS011;59686;51.716;7.016;2023-06-22T10:29:04;9.68;;;8.60;;
71836;SDS011;59686;51.716;7.016;2023-06-22T10:31:30;9.20;;;8.30;;
71836;SDS011;59686;51.716;7.016;2023-06-22T10:33:56;10.50;;;9.07;;
71836;SDS011;59686;51.716;7.016;2023-06-22T10:36:22;12.07;;;8.95;;
71836;SDS011;59686;51.716;7.016;2023-06-22T10:38:48;9.02;;;8.13;;
71836;SDS011;59686;51.716;7.016;2023-06-22T10:41:21;10.63;;;8.10;;
71836;SDS011;59686;51.716;7.016;2023-06-22T10:43:47;9.02;;;8.13;;
71836;SDS011;59686;51.716;7.016;2023-06-22T10:46:13;7.55;;;6.85;;
71836;SDS011;59686;51.716;7.016;2023-06-22T10:48:39;8.00;;;7.05;;
71836;SDS011;59686;51.716;7.016;2023-06-22T10:51:04;7.90;;;7.10;;
71836;SDS011;59686;51.716;7.016;2023-06-22T10:53:30;7.85;;;7.15;;
71836;SDS011;59686;51.716;7.016;2023-06-22T10:56:05;7.55;;;6.90;;
71836;SDS011;59686;51.716;7.016;2023-06-22T10:58:30;8.75;;;6.78;;
71836;SDS011;59686;51.716;7.016;2023-06-22T11:00:56;9.52;;;7.10;;
71836;SDS011;59686;51.716;7.016;2023-06-22T11:03:22;7.70;;;6.80;;
71836;SDS011;59686;51.716;7.016;2023-06-22T11:05:47;7.90;;;7.18;;
71836;SDS011;59686;51.716;7.016;2023-06-22T11:08:13;8.45;;;7.32;;
71836;SDS011;59686;51.716;7.016;2023-06-22T11:10:39;7.90;;;7.10;;
71836;SDS011;59686;51.716;7.016;2023-06-22T11:13:05;7.55;;;6.75;;
71836;SDS011;59686;51.716;7.016;2023-06-22T11:15:34;7.45;;;6.78;;
71836;SDS011;59686;51.716;7.016;2023-06-22T11:18:00;7.53;;;6.82;;
71836;SDS011;59686;51.716;7.016;2023-06-22T11:20:28;9.45;;;6.57;;
71836;SDS011;59686;51.716;7.016;2023-06-22T11:22:53;7.43;;;6.82;;
71836;SDS011;59686;51.716;7.016;2023-06-22T11:25:19;6.90;;;6.28;;
71836;SDS011;59686;51.716;7.016;2023-06-22T11:27:45;7.22;;;6.45;;
71836;SDS011;59686;51.716;7.016;2023-06-22T11:30:10;7.82;;;6.80;;
71836;SDS011;59686;51.716;7.016;2023-06-22T11:32:36;7.50;;;6.60;;
71836;SDS011;59686;51.716;7.016;2023-06-22T11:35:02;7.38;;;6.68;;
71836;SDS011;59686;51.716;7.016;2023-06-22T11:37:28;7.50;;;6.70;;
71836;SDS011;59686;51.716;7.016;2023-06-22T11:39:53;7.80;;;7.00;;
71836;SDS011;59686;51.716;7.016;2023-06-22T11:42:20;7.35;;;6.63;;
71836;SDS011;59686;51.716;7.016;2023-06-22T11:44:45;7.28;;;6.57;;
71836;SDS011;59686;51.716;7.016;2023-06-22T11:47:11;6.93;;;6.32;;
71836;SDS011;59686;51.716;7.016;2023-06-22T11:49:55;7.38;;;6.68;;
71836;SDS011;59686;51.716;7.016;2023-06-22T11:52:21;7.47;;;6.30;;
71836;SDS011;59686;51.716;7.016;2023-06-22T11:54:46;7.32;;;6.63;;
71836;SDS011;59686;51.716;7.016;2023-06-22T11:57:12;9.13;;;6.90;;
71836;SDS011;59686;51.716;7.016;2023-06-22T11:59:38;7.65;;;6.95;;
71836;SDS011;59686;51.716;7.016;2023-06-22T12:02:04;6.72;;;6.10;;
71836;SDS011;59686;51.716;7.016;2023-06-22T12:04:32;7.50;;;6.80;;
71836;SDS011;59686;51.716;7.016;2023-06-22T12:06:58;7.63;;;6.82;;
71836;SDS011;59686;51.716;7.016;2023-06-22T12:09:24;7.35;;;6.65;;
71836;SDS011;59686;51.716;7.016;2023-06-22T12:11:49;7.63;;;6.93;;
71836;SDS011;59686;51.716;7.016;2023-06-22T12:14:15;9.20;;;7.30;;
71836;SDS011;59686;51.716;7.016;2023-06-22T12:16:41;7.15;;;6.55;;
71836;SDS011;59686;51.716;7.016;2023-06-22T12:21:38;7.65;;;6.85;;
71836;SDS011;59686;51.716;7.016;2023-06-22T12:24:05;7.75;;;7.05;;
71836;SDS011;59686;51.716;7.016;2023-06-22T12:26:31;7.38;;;6.68;;
71836;SDS011;59686;51.716;7.016;2023-06-22T12:28:57;8.27;;;7.57;;
71836;SDS011;59686;51.716;7.016;2023-06-22T12:31:22;7.47;;;6.75;;
71836;SDS011;59686;51.716;7.016;2023-06-22T12:33:48;8.20;;;7.50;;
71836;SDS011;59686;51.716;7.016;2023-06-22T12:36:14;8.05;;;7.25;;
71836;SDS011;59686;51.716;7.016;2023-06-22T12:38:41;7.60;;;6.97;;
71836;SDS011;59686;51.716;7.016;2023-06-22T12:41:07;8.45;;;7.55;;
71836;SDS011;59686;51.716;7.016;2023-06-22T12:43:34;11.32;;;7.43;;
71836;SDS011;59686;51.716;7.016;2023-06-22T12:45:59;8.05;;;7.25;;
71836;SDS011;59686;51.716;7.016;2023-06-22T12:48:28;8.05;;;7.28;;
71836;SDS011;59686;51.716;7.016;2023-06-22T12:53:24;8.40;;;7.53;;
71836;SDS011;59686;51.716;7.016;2023-06-22T12:55:52;8.43;;;7.53;;
71836;SDS011;59686;51.716;7.016;2023-06-22T12:58:18;9.25;;;7.60;;
71836;SDS011;59686;51.716;7.016;2023-06-22T13:00:43;8.20;;;7.13;;
71836;SDS011;59686;51.716;7.016;2023-06-22T13:03:09;9.50;;;7.93;;
71836;SDS011;59686;51.716;7.016;2023-06-22T13:05:35;9.00;;;8.07;;
71836;SDS011;59686;51.716;7.016;2023-06-22T13:08:01;11.00;;;9.13;;
71836;SDS011;59686;51.716;7.016;2023-06-22T13:10:27;10.15;;;8.98;;
71836;SDS011;59686;51.716;7.016;2023-06-22T13:12:54;9.70;;;8.63;;
71836;SDS011;59686;51.716;7.016;2023-06-22T13:15:25;9.95;;;8.75;;
71836;SDS011;59686;51.716;7.016;2023-06-22T13:17:52;10.60;;;8.70;;
71836;SDS011;59686;51.716;7.016;2023-06-22T13:20:18;9.65;;;8.70;;
71836;SDS011;59686;51.716;7.016;2023-06-22T13:22:44;9.63;;;8.73;;
71836;SDS011;59686;51.716;7.016;2023-06-22T13:25:10;11.52;;;9.82;;
71836;SDS011;59686;51.716;7.016;2023-06-22T13:27:40;9.20;;;8.30;;
71836;SDS011;59686;51.716;7.016;2023-06-22T13:30:09;10.98;;;9.35;;
71836;SDS011;59686;51.716;7.016;2023-06-22T13:32:35;11.20;;;8.45;;
71836;SDS011;59686;51.716;7.016;2023-06-22T13:35:00;11.25;;;9.48;;
71836;SDS011;59686;51.716;7.016;2023-06-22T13:37:26;10.43;;;9.25;;
71836;SDS011;59686;51.716;7.016;2023-06-22T13:39:52;10.50;;;9.50;;
71836;SDS011;59686;51.716;7.016;2023-06-22T13:42:18;9.85;;;8.40;;
71836;SDS011;59686;51.716;7.016;2023-06-22T13:44:43;10.13;;;9.13;;
71836;SDS011;59686;51.716;7.016;2023-06-22T13:47:09;9.02;;;8.13;;
71836;SDS011;59686;51.716;7.016;2023-06-22T13:49:35;9.02;;;8.32;;
71836;SDS011;59686;51.716;7.016;2023-06-22T13:52:01;9.30;;;8.40;;
71836;SDS011;59686;51.716;7.016;2023-06-22T13:54:28;9.15;;;8.25;;
71836;SDS011;59686;51.716;7.016;2023-06-22T13:56:54;8.98;;;8.18;;
71836;SDS011;59686;51.716;7.016;2023-06-22T13:59:19;9.93;;;8.52;;
71836;SDS011;59686;51.716;7.016;2023-06-22T14:01:46;9.35;;;8.55;;
71836;SDS011;59686;51.716;7.016;2023-06-22T14:04:12;9.40;;;8.40;;
71836;SDS011;59686;51.716;7.016;2023-06-22T14:06:37;9.32;;;8.52;;
71836;SDS011;59686;51.716;7.016;2023-06-22T14:09:03;9.15;;;8.25;;
71836;SDS011;59686;51.716;7.016;2023-06-22T14:11:29;8.98;;;8.18;;
71836;SDS011;59686;51.716;7.016;2023-06-22T14:13:55;10.20;;;9.10;;
71836;SDS011;59686;51.716;7.016;2023-06-22T14:16:20;9.43;;;8.63;;
71836;SDS011;59686;51.716;7.016;2023-06-22T14:18:46;9.55;;;8.65;;
71836;SDS011;59686;51.716;7.016;2023-06-22T14:21:12;9.50;;;8.60;;
71836;SDS011;59686;51.716;7.016;2023-06-22T14:23:37;9.95;;;9.02;;
